sensor_id;sensor_type;location;lat;lon;timestamp;temperature;humidity
30678;DHT22;17437;47.188;8.896;2023-07-20T00:01:55;22.70;99.90
30678;DHT22;17437;47.188;8.896;2023-07-20T00:04:27;22.80;99.90
30678;DHT22;17437;47.188;8.896;2023-07-20T00:06:59;22.70;99.90
30678;DHT22;17437;47.188;8.896;2023-07-20T00:09:31;22.70;99.90
30678;DHT22;17437;47.188;8.896;2023-07-20T00:12:03;22.70;99.90
30678;DHT22;17437;47.188;8.896;2023-07-20T00:14:35;22.60;99.90
30678;DHT22;17437;47.188;8.896;2023-07-20T00:17:07;22.60;99.90
30678;DHT22;17437;47.188;8.896;2023-07-20T00:19:38;22.50;99.90
30678;DHT22;17437;47.188;8.896;2023-07-20T00:22:10;22.50;99.90
30678;DHT22;17437;47.188;8.896;2023-07-20T00:24:43;22.50;99.90
30678;DHT22;17437;47.188;8.896;2023-07-20T00:27:15;22.50;99.90
30678;DHT22;17437;47.188;8.896;2023-07-20T00:29:47;22.50;99.90
30678;DHT22;17437;47.188;8.896;2023-07-20T00:32:18;22.60;99.90
30678;DHT22;17437;47.188;8.896;2023-07-20T00:34:50;22.60;99.90
30678;DHT22;17437;47.188;8.896;2023-07-20T00:37:21;22.50;99.90
30678;DHT22;17437;47.188;8.896;2023-07-20T00:39:54;22.50;99.90
30678;DHT22;17437;47.188;8.896;2023-07-20T00:42:26;22.40;99.90
30678;DHT22;17437;47.188;8.896;2023-07-20T00:44:57;22.30;99.90
30678;DHT22;17437;47.188;8.896;2023-07-20T00:47:29;22.40;99.90
30678;DHT22;17437;47.188;8.896;2023-07-20T00:50:03;22.30;99.90
30678;DHT22;17437;47.188;8.896;2023-07-20T00:52:38;22.40;99.90
30678;DHT22;17437;47.188;8.896;2023-07-20T00:55:10;22.40;99.90
30678;DHT22;17437;47.188;8.896;2023-07-20T00:57:42;22.40;99.90
30678;DHT22;17437;47.188;8.896;2023-07-20T01:00:15;22.40;99.90
30678;DHT22;17437;47.188;8.896;2023-07-20T01:02:47;22.40;99.90
30678;DHT22;17437;47.188;8.896;2023-07-20T01:05:19;22.40;99.90
30678;DHT22;17437;47.188;8.896;2023-07-20T01:07:55;22.40;99.90
30678;DHT22;17437;47.188;8.896;2023-07-20T01:10:29;22.40;99.90
30678;DHT22;17437;47.188;8.896;2023-07-20T01:13:02;22.50;99.90
30678;DHT22;17437;47.188;8.896;2023-07-20T01:15:35;22.40;99.90
30678;DHT22;17437;47.188;8.896;2023-07-20T01:18:07;22.30;99.90
30678;DHT22;17437;47.188;8.896;2023-07-20T01:20:38;22.30;99.90
30678;DHT22;17437;47.188;8.896;2023-07-20T01:23:42;22.20;99.90
30678;DHT22;17437;47.188;8.896;2023-07-20T01:26:28;22.20;99.90
30678;DHT22;17437;47.188;8.896;2023-07-20T01:29:17;22.10;99.90
30678;DHT22;17437;47.188;8.896;2023-07-20T01:31:51;22.10;99.90
30678;DHT22;17437;47.188;8.896;2023-07-20T01:34:24;22.00;99.90
30678;DHT22;17437;47.188;8.896;2023-07-20T01:36:56;22.00;99.90
30678;DHT22;17437;47.188;8.896;2023-07-20T01:39:29;22.00;99.90
30678;DHT22;17437;47.188;8.896;2023-07-20T01:42:02;21.90;99.90
30678;DHT22;17437;47.188;8.896;2023-07-20T01:44:34;21.90;99.90
30678;DHT22;17437;47.188;8.896;2023-07-20T01:47:06;21.90;99.90
30678;DHT22;17437;47.188;8.896;2023-07-20T01:49:38;21.90;99.90
30678;DHT22;17437;47.188;8.896;2023-07-20T01:52:09;21.90;99.90
30678;DHT22;17437;47.188;8.896;2023-07-20T01:54:40;22.00;99.90
30678;DHT22;17437;47.188;8.896;2023-07-20T01:57:12;21.90;99.90
30678;DHT22;17437;47.188;8.896;2023-07-20T01:59:44;21.90;99.90
30678;DHT22;17437;47.188;8.896;2023-07-20T02:02:16;21.90;99.90
30678;DHT22;17437;47.188;8.896;2023-07-20T02:04:48;21.90;99.90
30678;DHT22;17437;47.188;8.896;2023-07-20T02:07:20;21.80;99.90
30678;DHT22;17437;47.188;8.896;2023-07-20T02:09:51;21.80;99.90
30678;DHT22;17437;47.188;8.896;2023-07-20T02:12:23;21.80;99.90
30678;DHT22;17437;47.188;8.896;2023-07-20T02:14:55;21.80;99.90
30678;DHT22;17437;47.188;8.896;2023-07-20T02:17:26;21.70;99.90
30678;DHT22;17437;47.188;8.896;2023-07-20T02:19:58;21.70;99.90
30678;DHT22;17437;47.188;8.896;2023-07-20T02:22:30;21.70;99.90
30678;DHT22;17437;47.188;8.896;2023-07-20T02:25:02;21.60;99.90
30678;DHT22;17437;47.188;8.896;2023-07-20T02:27:33;21.60;99.90
30678;DHT22;17437;47.188;8.896;2023-07-20T02:30:07;21.60;99.90
30678;DHT22;17437;47.188;8.896;2023-07-20T02:32:40;21.60;99.90
30678;DHT22;17437;47.188;8.896;2023-07-20T02:35:13;21.60;99.90
30678;DHT22;17437;47.188;8.896;2023-07-20T02:37:45;21.60;99.90
30678;DHT22;17437;47.188;8.896;2023-07-20T02:40:16;21.60;99.90
30678;DHT22;17437;47.188;8.896;2023-07-20T02:42:48;21.70;99.90
30678;DHT22;17437;47.188;8.896;2023-07-20T02:45:20;21.70;99.90
30678;DHT22;17437;47.188;8.896;2023-07-20T02:47:51;21.60;99.90
30678;DHT22;17437;47.188;8.896;2023-07-20T02:50:23;21.60;99.90
30678;DHT22;17437;47.188;8.896;2023-07-20T02:52:55;21.60;99.90
30678;DHT22;17437;47.188;8.896;2023-07-20T02:55:26;21.50;99.90
30678;DHT22;17437;47.188;8.896;2023-07-20T02:57:58;21.50;99.90
30678;DHT22;17437;47.188;8.896;2023-07-20T03:00:30;21.50;99.90
30678;DHT22;17437;47.188;8.896;2023-07-20T03:03:01;21.40;99.90
30678;DHT22;17437;47.188;8.896;2023-07-20T03:05:33;21.40;99.90
30678;DHT22;17437;47.188;8.896;2023-07-20T03:08:05;21.40;99.90
30678;DHT22;17437;47.188;8.896;2023-07-20T03:10:40;21.40;99.90
30678;DHT22;17437;47.188;8.896;2023-07-20T03:13:12;21.30;99.90
30678;DHT22;17437;47.188;8.896;2023-07-20T03:15:44;21.30;99.90
30678;DHT22;17437;47.188;8.896;2023-07-20T03:18:16;21.30;99.90
30678;DHT22;17437;47.188;8.896;2023-07-20T03:20:47;21.40;99.90
30678;DHT22;17437;47.188;8.896;2023-07-20T03:23:19;21.30;99.90
30678;DHT22;17437;47.188;8.896;2023-07-20T03:25:51;21.30;99.90
30678;DHT22;17437;47.188;8.896;2023-07-20T03:28:24;21.30;99.90
30678;DHT22;17437;47.188;8.896;2023-07-20T03:30:56;21.30;99.90
30678;DHT22;17437;47.188;8.896;2023-07-20T03:33:30;21.30;99.90
30678;DHT22;17437;47.188;8.896;2023-07-20T03:36:02;21.30;99.90
30678;DHT22;17437;47.188;8.896;2023-07-20T03:38:34;21.30;99.90
30678;DHT22;17437;47.188;8.896;2023-07-20T03:41:06;21.30;99.90
30678;DHT22;17437;47.188;8.896;2023-07-20T03:43:37;21.20;99.90
30678;DHT22;17437;47.188;8.896;2023-07-20T03:46:09;21.10;99.90
30678;DHT22;17437;47.188;8.896;2023-07-20T03:48:41;21.10;99.90
30678;DHT22;17437;47.188;8.896;2023-07-20T03:51:12;21.10;99.90
30678;DHT22;17437;47.188;8.896;2023-07-20T03:53:44;21.10;99.90
30678;DHT22;17437;47.188;8.896;2023-07-20T03:56:15;21.10;99.90
30678;DHT22;17437;47.188;8.896;2023-07-20T03:58:47;21.10;99.90
30678;DHT22;17437;47.188;8.896;2023-07-20T04:01:18;21.10;99.90
30678;DHT22;17437;47.188;8.896;2023-07-20T04:03:50;21.00;99.90
30678;DHT22;17437;47.188;8.896;2023-07-20T04:06:22;21.10;99.90
30678;DHT22;17437;47.188;8.896;2023-07-20T04:08:54;21.10;99.90
30678;DHT22;17437;47.188;8.896;2023-07-20T04:11:25;21.10;99.90
30678;DHT22;17437;47.188;8.896;2023-07-20T04:13:57;21.10;99.90
30678;DHT22;17437;47.188;8.896;2023-07-20T04:16:29;21.00;99.90
30678;DHT22;17437;47.188;8.896;2023-07-20T04:19:00;21.00;99.90
30678;DHT22;17437;47.188;8.896;2023-07-20T04:21:32;21.00;99.90
30678;DHT22;17437;47.188;8.896;2023-07-20T04:24:04;21.00;99.90
30678;DHT22;17437;47.188;8.896;2023-07-20T04:26:36;21.00;99.90
30678;DHT22;17437;47.188;8.896;2023-07-20T04:29:08;21.00;99.90
30678;DHT22;17437;47.188;8.896;2023-07-20T04:31:40;21.00;99.90
30678;DHT22;17437;47.188;8.896;2023-07-20T04:34:12;21.00;99.90
30678;DHT22;17437;47.188;8.896;2023-07-20T04:36:44;21.00;99.90
30678;DHT22;17437;47.188;8.896;2023-07-20T04:39:17;21.10;99.90
30678;DHT22;17437;47.188;8.896;2023-07-20T04:41:50;21.10;99.90
30678;DHT22;17437;47.188;8.896;2023-07-20T04:44:22;21.20;99.90
30678;DHT22;17437;47.188;8.896;2023-07-20T04:46:54;21.30;99.90
30678;DHT22;17437;47.188;8.896;2023-07-20T04:49:25;21.40;99.90
30678;DHT22;17437;47.188;8.896;2023-07-20T04:51:57;21.70;99.90
30678;DHT22;17437;47.188;8.896;2023-07-20T04:54:28;21.70;99.90
30678;DHT22;17437;47.188;8.896;2023-07-20T04:57:00;21.70;99.90
30678;DHT22;17437;47.188;8.896;2023-07-20T04:59:33;21.60;99.90
30678;DHT22;17437;47.188;8.896;2023-07-20T05:02:05;21.50;99.90
30678;DHT22;17437;47.188;8.896;2023-07-20T05:04:37;21.40;99.90
30678;DHT22;17437;47.188;8.896;2023-07-20T05:07:09;21.40;99.90
30678;DHT22;17437;47.188;8.896;2023-07-20T05:09:41;21.40;99.90
30678;DHT22;17437;47.188;8.896;2023-07-20T05:12:12;21.40;99.90
30678;DHT22;17437;47.188;8.896;2023-07-20T05:14:44;21.50;99.90
30678;DHT22;17437;47.188;8.896;2023-07-20T05:17:16;21.60;99.90
30678;DHT22;17437;47.188;8.896;2023-07-20T05:19:47;21.70;99.90
30678;DHT22;17437;47.188;8.896;2023-07-20T05:22:19;21.80;99.90
30678;DHT22;17437;47.188;8.896;2023-07-20T05:24:51;21.90;99.90
30678;DHT22;17437;47.188;8.896;2023-07-20T05:27:23;22.10;99.90
30678;DHT22;17437;47.188;8.896;2023-07-20T05:29:54;22.30;99.90
30678;DHT22;17437;47.188;8.896;2023-07-20T05:32:26;22.30;99.90
30678;DHT22;17437;47.188;8.896;2023-07-20T05:34:58;22.40;99.90
30678;DHT22;17437;47.188;8.896;2023-07-20T05:37:30;22.30;99.90
30678;DHT22;17437;47.188;8.896;2023-07-20T05:40:01;22.40;99.90
30678;DHT22;17437;47.188;8.896;2023-07-20T05:42:33;22.60;99.90
30678;DHT22;17437;47.188;8.896;2023-07-20T05:45:06;22.80;99.90
30678;DHT22;17437;47.188;8.896;2023-07-20T05:47:38;23.20;99.90
30678;DHT22;17437;47.188;8.896;2023-07-20T05:50:10;23.80;99.90
30678;DHT22;17437;47.188;8.896;2023-07-20T05:52:42;23.90;99.90
30678;DHT22;17437;47.188;8.896;2023-07-20T05:55:15;23.90;99.90
30678;DHT22;17437;47.188;8.896;2023-07-20T05:57:53;24.30;99.90
30678;DHT22;17437;47.188;8.896;2023-07-20T06:00:30;24.20;99.90
30678;DHT22;17437;47.188;8.896;2023-07-20T06:03:07;24.00;99.90
30678;DHT22;17437;47.188;8.896;2023-07-20T06:05:39;24.00;99.90
30678;DHT22;17437;47.188;8.896;2023-07-20T06:08:11;23.90;99.90
30678;DHT22;17437;47.188;8.896;2023-07-20T06:10:43;23.80;99.90
30678;DHT22;17437;47.188;8.896;2023-07-20T06:13:15;24.00;99.90
30678;DHT22;17437;47.188;8.896;2023-07-20T06:15:49;25.70;99.90
30678;DHT22;17437;47.188;8.896;2023-07-20T06:18:23;27.80;99.90
30678;DHT22;17437;47.188;8.896;2023-07-20T06:20:55;28.90;99.90
30678;DHT22;17437;47.188;8.896;2023-07-20T06:23:26;29.50;99.90
30678;DHT22;17437;47.188;8.896;2023-07-20T06:25:58;31.00;98.50
30678;DHT22;17437;47.188;8.896;2023-07-20T06:28:30;31.00;95.60
30678;DHT22;17437;47.188;8.896;2023-07-20T06:31:01;30.90;95.80
30678;DHT22;17437;47.188;8.896;2023-07-20T06:33:34;30.50;95.70
30678;DHT22;17437;47.188;8.896;2023-07-20T06:36:06;31.30;95.90
30678;DHT22;17437;47.188;8.896;2023-07-20T06:38:38;31.40;94.50
30678;DHT22;17437;47.188;8.896;2023-07-20T06:41:09;29.90;94.60
30678;DHT22;17437;47.188;8.896;2023-07-20T06:43:42;28.30;96.00
30678;DHT22;17437;47.188;8.896;2023-07-20T06:46:16;27.70;97.40
30678;DHT22;17437;47.188;8.896;2023-07-20T06:48:48;28.70;96.80
30678;DHT22;17437;47.188;8.896;2023-07-20T06:51:21;29.10;95.80
30678;DHT22;17437;47.188;8.896;2023-07-20T06:53:53;30.20;95.40
30678;DHT22;17437;47.188;8.896;2023-07-20T06:56:25;31.20;94.20
30678;DHT22;17437;47.188;8.896;2023-07-20T06:58:58;31.80;92.90
30678;DHT22;17437;47.188;8.896;2023-07-20T07:01:30;32.20;92.60
30678;DHT22;17437;47.188;8.896;2023-07-20T07:04:02;32.40;91.40
30678;DHT22;17437;47.188;8.896;2023-07-20T07:06:36;32.50;90.80
30678;DHT22;17437;47.188;8.896;2023-07-20T07:09:08;31.50;91.60
30678;DHT22;17437;47.188;8.896;2023-07-20T07:11:40;31.40;91.40
30678;DHT22;17437;47.188;8.896;2023-07-20T07:14:12;31.20;91.50
30678;DHT22;17437;47.188;8.896;2023-07-20T07:16:44;31.20;90.80
30678;DHT22;17437;47.188;8.896;2023-07-20T07:19:16;30.90;91.30
30678;DHT22;17437;47.188;8.896;2023-07-20T07:21:48;31.30;91.70
30678;DHT22;17437;47.188;8.896;2023-07-20T07:24:19;31.30;91.10
30678;DHT22;17437;47.188;8.896;2023-07-20T07:26:51;31.50;90.90
30678;DHT22;17437;47.188;8.896;2023-07-20T07:29:23;31.60;90.90
30678;DHT22;17437;47.188;8.896;2023-07-20T07:31:54;31.70;90.50
30678;DHT22;17437;47.188;8.896;2023-07-20T07:34:26;31.70;90.60
30678;DHT22;17437;47.188;8.896;2023-07-20T07:37:11;31.50;90.90
30678;DHT22;17437;47.188;8.896;2023-07-20T07:39:44;31.30;91.10
30678;DHT22;17437;47.188;8.896;2023-07-20T07:42:15;30.60;90.90
30678;DHT22;17437;47.188;8.896;2023-07-20T07:44:49;29.80;91.40
30678;DHT22;17437;47.188;8.896;2023-07-20T07:47:22;29.30;92.00
30678;DHT22;17437;47.188;8.896;2023-07-20T07:49:54;28.70;93.00
30678;DHT22;17437;47.188;8.896;2023-07-20T07:52:26;28.10;93.90
30678;DHT22;17437;47.188;8.896;2023-07-20T07:54:59;27.50;94.30
30678;DHT22;17437;47.188;8.896;2023-07-20T07:57:31;26.90;95.40
30678;DHT22;17437;47.188;8.896;2023-07-20T08:00:04;26.50;95.50
30678;DHT22;17437;47.188;8.896;2023-07-20T08:02:38;26.20;95.50
30678;DHT22;17437;47.188;8.896;2023-07-20T08:05:11;26.10;96.20
30678;DHT22;17437;47.188;8.896;2023-07-20T08:07:43;26.00;96.80
30678;DHT22;17437;47.188;8.896;2023-07-20T08:10:15;25.90;97.00
30678;DHT22;17437;47.188;8.896;2023-07-20T08:12:48;25.90;97.00
30678;DHT22;17437;47.188;8.896;2023-07-20T08:15:21;25.90;97.30
30678;DHT22;17437;47.188;8.896;2023-07-20T08:17:52;26.10;97.20
30678;DHT22;17437;47.188;8.896;2023-07-20T08:20:24;26.30;96.10
30678;DHT22;17437;47.188;8.896;2023-07-20T08:22:57;26.40;95.70
30678;DHT22;17437;47.188;8.896;2023-07-20T08:25:30;26.60;95.60
30678;DHT22;17437;47.188;8.896;2023-07-20T08:28:01;26.60;94.30
30678;DHT22;17437;47.188;8.896;2023-07-20T08:30:41;26.40;93.70
30678;DHT22;17437;47.188;8.896;2023-07-20T08:33:15;26.10;94.20
30678;DHT22;17437;47.188;8.896;2023-07-20T08:35:47;26.10;94.20
30678;DHT22;17437;47.188;8.896;2023-07-20T08:38:19;26.10;93.70
30678;DHT22;17437;47.188;8.896;2023-07-20T08:40:53;26.20;94.50
30678;DHT22;17437;47.188;8.896;2023-07-20T08:43:29;26.40;94.30
30678;DHT22;17437;47.188;8.896;2023-07-20T08:46:04;26.40;94.20
30678;DHT22;17437;47.188;8.896;2023-07-20T08:48:43;26.10;95.40
30678;DHT22;17437;47.188;8.896;2023-07-20T08:51:18;26.10;95.60
30678;DHT22;17437;47.188;8.896;2023-07-20T08:53:52;26.30;96.10
30678;DHT22;17437;47.188;8.896;2023-07-20T08:56:25;26.50;96.50
30678;DHT22;17437;47.188;8.896;2023-07-20T08:58:57;26.80;95.90
30678;DHT22;17437;47.188;8.896;2023-07-20T09:01:30;26.80;95.90
30678;DHT22;17437;47.188;8.896;2023-07-20T09:04:04;26.80;95.10
30678;DHT22;17437;47.188;8.896;2023-07-20T09:06:36;27.00;95.70
30678;DHT22;17437;47.188;8.896;2023-07-20T09:09:08;27.10;94.80
30678;DHT22;17437;47.188;8.896;2023-07-20T09:11:42;27.20;94.90
30678;DHT22;17437;47.188;8.896;2023-07-20T09:14:14;27.20;95.50
30678;DHT22;17437;47.188;8.896;2023-07-20T09:16:49;27.20;95.00
30678;DHT22;17437;47.188;8.896;2023-07-20T09:19:21;27.20;94.90
30678;DHT22;17437;47.188;8.896;2023-07-20T09:21:53;27.30;94.50
30678;DHT22;17437;47.188;8.896;2023-07-20T09:24:28;27.30;94.20
30678;DHT22;17437;47.188;8.896;2023-07-20T09:27:01;27.30;95.00
30678;DHT22;17437;47.188;8.896;2023-07-20T09:29:34;27.30;94.80
30678;DHT22;17437;47.188;8.896;2023-07-20T09:32:07;27.40;95.30
30678;DHT22;17437;47.188;8.896;2023-07-20T09:34:40;27.30;94.40
30678;DHT22;17437;47.188;8.896;2023-07-20T09:37:12;27.30;94.80
30678;DHT22;17437;47.188;8.896;2023-07-20T09:39:46;27.30;93.70
30678;DHT22;17437;47.188;8.896;2023-07-20T09:42:22;27.40;94.20
30678;DHT22;17437;47.188;8.896;2023-07-20T09:44:57;27.60;94.40
30678;DHT22;17437;47.188;8.896;2023-07-20T09:47:29;27.50;92.90
30678;DHT22;17437;47.188;8.896;2023-07-20T09:50:01;27.50;94.30
30678;DHT22;17437;47.188;8.896;2023-07-20T09:52:39;27.70;94.40
30678;DHT22;17437;47.188;8.896;2023-07-20T09:55:14;27.90;94.40
30678;DHT22;17437;47.188;8.896;2023-07-20T09:57:55;28.00;94.20
30678;DHT22;17437;47.188;8.896;2023-07-20T10:00:28;28.40;92.70
30678;DHT22;17437;47.188;8.896;2023-07-20T10:03:04;28.10;92.80
30678;DHT22;17437;47.188;8.896;2023-07-20T10:05:38;28.20;93.80
30678;DHT22;17437;47.188;8.896;2023-07-20T10:08:12;28.30;94.30
30678;DHT22;17437;47.188;8.896;2023-07-20T10:10:46;28.10;93.70
30678;DHT22;17437;47.188;8.896;2023-07-20T10:13:30;28.00;93.60
30678;DHT22;17437;47.188;8.896;2023-07-20T10:16:05;27.80;94.80
30678;DHT22;17437;47.188;8.896;2023-07-20T10:18:41;27.90;95.00
30678;DHT22;17437;47.188;8.896;2023-07-20T10:21:14;27.80;94.50
30678;DHT22;17437;47.188;8.896;2023-07-20T10:23:49;27.50;95.20
30678;DHT22;17437;47.188;8.896;2023-07-20T10:26:21;27.70;94.60
30678;DHT22;17437;47.188;8.896;2023-07-20T10:29:00;27.90;93.90
30678;DHT22;17437;47.188;8.896;2023-07-20T10:31:37;27.90;94.50
30678;DHT22;17437;47.188;8.896;2023-07-20T10:34:10;28.20;93.60
30678;DHT22;17437;47.188;8.896;2023-07-20T10:36:46;28.20;93.90
30678;DHT22;17437;47.188;8.896;2023-07-20T10:39:26;28.10;94.20
30678;DHT22;17437;47.188;8.896;2023-07-20T10:42:02;28.00;94.10
30678;DHT22;17437;47.188;8.896;2023-07-20T10:44:35;27.70;94.10
30678;DHT22;17437;47.188;8.896;2023-07-20T10:47:11;27.40;94.60
30678;DHT22;17437;47.188;8.896;2023-07-20T10:50:00;27.10;94.90
30678;DHT22;17437;47.188;8.896;2023-07-20T10:52:38;26.90;94.80
30678;DHT22;17437;47.188;8.896;2023-07-20T10:55:16;26.40;95.30
30678;DHT22;17437;47.188;8.896;2023-07-20T10:58:07;26.30;95.60
30678;DHT22;17437;47.188;8.896;2023-07-20T11:00:55;26.40;95.80
30678;DHT22;17437;47.188;8.896;2023-07-20T11:03:31;26.50;95.60
30678;DHT22;17437;47.188;8.896;2023-07-20T11:06:31;26.70;95.80
30678;DHT22;17437;47.188;8.896;2023-07-20T11:09:06;26.80;95.20
30678;DHT22;17437;47.188;8.896;2023-07-20T11:11:40;26.80;96.10
30678;DHT22;17437;47.188;8.896;2023-07-20T11:14:20;26.80;95.60
30678;DHT22;17437;47.188;8.896;2023-07-20T11:16:53;26.80;96.10
30678;DHT22;17437;47.188;8.896;2023-07-20T11:19:26;27.00;96.30
30678;DHT22;17437;47.188;8.896;2023-07-20T11:21:59;27.10;95.70
30678;DHT22;17437;47.188;8.896;2023-07-20T11:24:34;27.10;95.60
30678;DHT22;17437;47.188;8.896;2023-07-20T11:27:06;27.20;94.50
30678;DHT22;17437;47.188;8.896;2023-07-20T11:29:38;27.20;94.40
30678;DHT22;17437;47.188;8.896;2023-07-20T11:32:11;27.00;94.70
30678;DHT22;17437;47.188;8.896;2023-07-20T11:34:46;26.90;94.40
30678;DHT22;17437;47.188;8.896;2023-07-20T11:37:18;26.80;94.90
30678;DHT22;17437;47.188;8.896;2023-07-20T11:39:50;26.70;94.40
30678;DHT22;17437;47.188;8.896;2023-07-20T11:42:23;26.80;94.70
30678;DHT22;17437;47.188;8.896;2023-07-20T11:44:57;26.80;94.80
30678;DHT22;17437;47.188;8.896;2023-07-20T11:47:31;26.80;94.50
30678;DHT22;17437;47.188;8.896;2023-07-20T11:50:05;26.80;94.30
30678;DHT22;17437;47.188;8.896;2023-07-20T11:52:37;26.80;94.90
30678;DHT22;17437;47.188;8.896;2023-07-20T11:55:09;26.80;94.20
30678;DHT22;17437;47.188;8.896;2023-07-20T11:57:42;26.80;94.40
30678;DHT22;17437;47.188;8.896;2023-07-20T12:00:15;26.80;95.40
30678;DHT22;17437;47.188;8.896;2023-07-20T12:02:48;27.00;95.00
30678;DHT22;17437;47.188;8.896;2023-07-20T12:05:21;27.10;95.30
30678;DHT22;17437;47.188;8.896;2023-07-20T12:07:54;27.20;94.90
30678;DHT22;17437;47.188;8.896;2023-07-20T12:10:26;27.30;94.80
30678;DHT22;17437;47.188;8.896;2023-07-20T12:13:03;27.40;94.10
30678;DHT22;17437;47.188;8.896;2023-07-20T12:15:35;27.50;94.20
30678;DHT22;17437;47.188;8.896;2023-07-20T12:18:07;27.60;94.40
30678;DHT22;17437;47.188;8.896;2023-07-20T12:20:40;27.60;93.10
30678;DHT22;17437;47.188;8.896;2023-07-20T12:23:15;27.10;93.90
30678;DHT22;17437;47.188;8.896;2023-07-20T12:25:48;27.10;94.60
30678;DHT22;17437;47.188;8.896;2023-07-20T12:28:20;27.20;94.80
30678;DHT22;17437;47.188;8.896;2023-07-20T12:30:52;27.30;93.80
30678;DHT22;17437;47.188;8.896;2023-07-20T12:33:28;27.40;93.80
30678;DHT22;17437;47.188;8.896;2023-07-20T12:36:01;27.50;94.40
30678;DHT22;17437;47.188;8.896;2023-07-20T12:38:32;27.60;93.80
30678;DHT22;17437;47.188;8.896;2023-07-20T12:41:04;27.60;93.20
30678;DHT22;17437;47.188;8.896;2023-07-20T12:43:36;27.60;93.80
30678;DHT22;17437;47.188;8.896;2023-07-20T12:46:08;27.70;93.70
30678;DHT22;17437;47.188;8.896;2023-07-20T12:48:44;27.80;93.90
30678;DHT22;17437;47.188;8.896;2023-07-20T12:51:17;27.80;93.10
30678;DHT22;17437;47.188;8.896;2023-07-20T12:54:08;27.60;93.10
30678;DHT22;17437;47.188;8.896;2023-07-20T12:56:40;27.50;93.80
30678;DHT22;17437;47.188;8.896;2023-07-20T12:59:13;27.50;93.70
30678;DHT22;17437;47.188;8.896;2023-07-20T13:01:45;27.50;94.10
30678;DHT22;17437;47.188;8.896;2023-07-20T13:04:17;27.60;93.70
30678;DHT22;17437;47.188;8.896;2023-07-20T13:06:51;27.70;93.90
30678;DHT22;17437;47.188;8.896;2023-07-20T13:09:22;27.90;93.60
30678;DHT22;17437;47.188;8.896;2023-07-20T13:11:54;27.70;92.50
30678;DHT22;17437;47.188;8.896;2023-07-20T13:14:27;27.60;92.80
30678;DHT22;17437;47.188;8.896;2023-07-20T13:16:59;27.50;93.50
30678;DHT22;17437;47.188;8.896;2023-07-20T13:19:37;27.60;94.00
30678;DHT22;17437;47.188;8.896;2023-07-20T13:22:13;27.60;93.30
30678;DHT22;17437;47.188;8.896;2023-07-20T13:24:48;27.50;94.30
30678;DHT22;17437;47.188;8.896;2023-07-20T13:27:21;27.60;93.60
30678;DHT22;17437;47.188;8.896;2023-07-20T13:29:52;27.50;93.10
30678;DHT22;17437;47.188;8.896;2023-07-20T13:32:24;27.40;93.90
30678;DHT22;17437;47.188;8.896;2023-07-20T13:34:56;27.50;94.00
30678;DHT22;17437;47.188;8.896;2023-07-20T13:37:27;27.60;92.30
30678;DHT22;17437;47.188;8.896;2023-07-20T13:39:59;27.70;93.00
30678;DHT22;17437;47.188;8.896;2023-07-20T13:42:32;27.60;93.50
30678;DHT22;17437;47.188;8.896;2023-07-20T13:45:05;27.50;92.70
30678;DHT22;17437;47.188;8.896;2023-07-20T13:47:37;27.60;94.40
30678;DHT22;17437;47.188;8.896;2023-07-20T13:50:10;27.80;92.60
30678;DHT22;17437;47.188;8.896;2023-07-20T13:52:46;28.00;94.00
30678;DHT22;17437;47.188;8.896;2023-07-20T13:55:18;28.10;92.90
30678;DHT22;17437;47.188;8.896;2023-07-20T13:57:51;28.20;92.90
30678;DHT22;17437;47.188;8.896;2023-07-20T14:00:23;28.20;92.20
30678;DHT22;17437;47.188;8.896;2023-07-20T14:02:57;28.00;92.80
30678;DHT22;17437;47.188;8.896;2023-07-20T14:05:31;27.80;92.60
30678;DHT22;17437;47.188;8.896;2023-07-20T14:08:06;27.80;92.20
30678;DHT22;17437;47.188;8.896;2023-07-20T14:10:37;27.70;91.90
30678;DHT22;17437;47.188;8.896;2023-07-20T14:13:11;27.60;93.20
30678;DHT22;17437;47.188;8.896;2023-07-20T14:15:43;27.80;92.40
30678;DHT22;17437;47.188;8.896;2023-07-20T14:18:15;27.80;93.40
30678;DHT22;17437;47.188;8.896;2023-07-20T14:20:48;27.90;93.60
30678;DHT22;17437;47.188;8.896;2023-07-20T14:23:20;28.00;92.40
30678;DHT22;17437;47.188;8.896;2023-07-20T14:25:53;28.20;92.00
30678;DHT22;17437;47.188;8.896;2023-07-20T14:28:25;28.20;92.50
30678;DHT22;17437;47.188;8.896;2023-07-20T14:30:57;28.40;92.70
30678;DHT22;17437;47.188;8.896;2023-07-20T14:33:29;28.50;92.00
30678;DHT22;17437;47.188;8.896;2023-07-20T14:36:00;28.70;92.20
30678;DHT22;17437;47.188;8.896;2023-07-20T14:38:34;28.70;92.30
30678;DHT22;17437;47.188;8.896;2023-07-20T14:41:06;28.60;91.80
30678;DHT22;17437;47.188;8.896;2023-07-20T14:43:38;28.60;91.60
30678;DHT22;17437;47.188;8.896;2023-07-20T14:46:10;28.60;91.40
30678;DHT22;17437;47.188;8.896;2023-07-20T14:48:42;28.60;91.70
30678;DHT22;17437;47.188;8.896;2023-07-20T14:51:13;28.70;91.50
30678;DHT22;17437;47.188;8.896;2023-07-20T14:53:45;28.70;91.40
30678;DHT22;17437;47.188;8.896;2023-07-20T14:56:16;28.70;91.20
30678;DHT22;17437;47.188;8.896;2023-07-20T14:58:48;28.80;91.00
30678;DHT22;17437;47.188;8.896;2023-07-20T15:01:20;28.70;92.00
30678;DHT22;17437;47.188;8.896;2023-07-20T15:03:53;28.70;92.20
30678;DHT22;17437;47.188;8.896;2023-07-20T15:06:29;28.60;91.50
30678;DHT22;17437;47.188;8.896;2023-07-20T15:09:02;28.60;91.60
30678;DHT22;17437;47.188;8.896;2023-07-20T15:11:35;28.50;92.00
30678;DHT22;17437;47.188;8.896;2023-07-20T15:14:07;28.50;91.20
30678;DHT22;17437;47.188;8.896;2023-07-20T15:16:38;28.50;91.20
30678;DHT22;17437;47.188;8.896;2023-07-20T15:19:10;28.40;91.70
30678;DHT22;17437;47.188;8.896;2023-07-20T15:21:44;28.40;91.90
30678;DHT22;17437;47.188;8.896;2023-07-20T15:24:15;28.50;91.60
30678;DHT22;17437;47.188;8.896;2023-07-20T15:26:47;28.40;91.80
30678;DHT22;17437;47.188;8.896;2023-07-20T15:29:21;28.30;91.40
30678;DHT22;17437;47.188;8.896;2023-07-20T15:31:54;28.30;91.10
30678;DHT22;17437;47.188;8.896;2023-07-20T15:34:27;28.40;90.90
30678;DHT22;17437;47.188;8.896;2023-07-20T15:36:59;28.40;90.70
30678;DHT22;17437;47.188;8.896;2023-07-20T15:39:31;28.60;92.10
30678;DHT22;17437;47.188;8.896;2023-07-20T15:42:02;28.90;91.50
30678;DHT22;17437;47.188;8.896;2023-07-20T15:44:35;29.10;91.30
30678;DHT22;17437;47.188;8.896;2023-07-20T15:47:07;29.30;90.70
30678;DHT22;17437;47.188;8.896;2023-07-20T15:49:40;29.50;91.10
30678;DHT22;17437;47.188;8.896;2023-07-20T15:52:13;29.30;90.40
30678;DHT22;17437;47.188;8.896;2023-07-20T15:54:52;29.10;90.90
30678;DHT22;17437;47.188;8.896;2023-07-20T15:57:25;29.10;91.20
30678;DHT22;17437;47.188;8.896;2023-07-20T15:59:57;29.10;90.40
30678;DHT22;17437;47.188;8.896;2023-07-20T16:02:30;29.00;90.60
30678;DHT22;17437;47.188;8.896;2023-07-20T16:05:04;29.00;90.90
30678;DHT22;17437;47.188;8.896;2023-07-20T16:07:37;29.00;90.60